sensor_id;sensor_type;location;lat;lon;timestamp;temperature;humidity
62998;DHT22;55949;52.590;7.330;2022-08-19T00:00:48;19.20;99.90
62998;DHT22;55949;52.590;7.330;2022-08-19T00:01:52;19.20;99.90
62998;DHT22;55949;52.590;7.330;2022-08-19T00:02:53;19.10;99.90
62998;DHT22;55949;52.590;7.330;2022-08-19T00:03:55;19.00;99.90
62998;DHT22;55949;52.590;7.330;2022-08-19T00:04:56;19.00;99.90
62998;DHT22;55949;52.590;7.330;2022-08-19T00:05:57;18.80;99.90
62998;DHT22;55949;52.590;7.330;2022-08-19T00:06:58;18.80;99.90
62998;DHT22;55949;52.590;7.330;2022-08-19T00:07:59;18.70;99.90
62998;DHT22;55949;52.590;7.330;2022-08-19T00:08:59;18.60;99.90
62998;DHT22;55949;52.590;7.330;2022-08-19T00:10:00;18.60;99.90
62998;DHT22;55949;52.590;7.330;2022-08-19T00:11:01;18.50;99.90
62998;DHT22;55949;52.590;7.330;2022-08-19T00:12:02;18.50;99.90
62998;DHT22;55949;52.590;7.330;2022-08-19T00:13:03;18.80;99.90
62998;DHT22;55949;52.590;7.330;2022-08-19T00:14:06;19.00;99.90
62998;DHT22;55949;52.590;7.330;2022-08-19T00:15:11;19.20;99.90
62998;DHT22;55949;52.590;7.330;2022-08-19T00:16:12;19.20;99.90
62998;DHT22;55949;52.590;7.330;2022-08-19T00:17:13;19.20;99.90
62998;DHT22;55949;52.590;7.330;2022-08-19T00:18:14;19.10;99.90
62998;DHT22;55949;52.590;7.330;2022-08-19T00:19:16;19.00;99.90
62998;DHT22;55949;52.590;7.330;2022-08-19T00:20:19;18.90;99.90
62998;DHT22;55949;52.590;7.330;2022-08-19T00:21:20;18.80;99.90
62998;DHT22;55949;52.590;7.330;2022-08-19T00:22:21;18.60;99.90
62998;DHT22;55949;52.590;7.330;2022-08-19T00:23:22;18.60;99.90
62998;DHT22;55949;52.590;7.330;2022-08-19T00:24:22;18.70;99.90
62998;DHT22;55949;52.590;7.330;2022-08-19T00:25:23;18.60;99.90
62998;DHT22;55949;52.590;7.330;2022-08-19T00:26:26;18.50;99.90
62998;DHT22;55949;52.590;7.330;2022-08-19T00:27:26;18.60;99.90
62998;DHT22;55949;52.590;7.330;2022-08-19T00:28:27;18.70;99.90
62998;DHT22;55949;52.590;7.330;2022-08-19T00:29:28;18.60;99.90
62998;DHT22;55949;52.590;7.330;2022-08-19T00:30:29;18.50;99.90
62998;DHT22;55949;52.590;7.330;2022-08-19T00:31:29;18.50;99.90
62998;DHT22;55949;52.590;7.330;2022-08-19T00:32:31;18.50;99.90
62998;DHT22;55949;52.590;7.330;2022-08-19T00:33:33;18.50;99.90
62998;DHT22;55949;52.590;7.330;2022-08-19T00:34:34;18.50;99.90
62998;DHT22;55949;52.590;7.330;2022-08-19T00:35:35;18.50;99.90
62998;DHT22;55949;52.590;7.330;2022-08-19T00:36:39;18.50;99.90
62998;DHT22;55949;52.590;7.330;2022-08-19T00:37:40;18.40;99.90
62998;DHT22;55949;52.590;7.330;2022-08-19T00:38:43;18.50;99.90
62998;DHT22;55949;52.590;7.330;2022-08-19T00:39:44;18.50;99.90
62998;DHT22;55949;52.590;7.330;2022-08-19T00:40:45;18.50;99.90
62998;DHT22;55949;52.590;7.330;2022-08-19T00:41:50;18.60;99.90
62998;DHT22;55949;52.590;7.330;2022-08-19T00:42:51;18.50;99.90
62998;DHT22;55949;52.590;7.330;2022-08-19T00:44:59;18.50;99.90
62998;DHT22;55949;52.590;7.330;2022-08-19T00:46:00;18.40;99.90
62998;DHT22;55949;52.590;7.330;2022-08-19T00:47:05;18.40;99.90
62998;DHT22;55949;52.590;7.330;2022-08-19T00:48:06;18.50;99.90
62998;DHT22;55949;52.590;7.330;2022-08-19T00:49:15;18.60;99.90
62998;DHT22;55949;52.590;7.330;2022-08-19T00:50:18;18.80;99.90
62998;DHT22;55949;52.590;7.330;2022-08-19T00:51:20;18.80;99.90
62998;DHT22;55949;52.590;7.330;2022-08-19T00:52:38;18.70;99.90
62998;DHT22;55949;52.590;7.330;2022-08-19T00:53:40;18.60;99.90
62998;DHT22;55949;52.590;7.330;2022-08-19T00:54:42;18.50;99.90
62998;DHT22;55949;52.590;7.330;2022-08-19T00:55:49;18.60;99.90
62998;DHT22;55949;52.590;7.330;2022-08-19T00:56:50;18.70;99.90
62998;DHT22;55949;52.590;7.330;2022-08-19T00:57:55;18.80;99.90
62998;DHT22;55949;52.590;7.330;2022-08-19T00:58:58;19.00;99.90
62998;DHT22;55949;52.590;7.330;2022-08-19T01:00:00;19.10;99.90
62998;DHT22;55949;52.590;7.330;2022-08-19T01:01:04;19.10;99.90
62998;DHT22;55949;52.590;7.330;2022-08-19T01:02:05;19.10;99.90
62998;DHT22;55949;52.590;7.330;2022-08-19T01:03:09;19.00;99.90
62998;DHT22;55949;52.590;7.330;2022-08-19T01:04:10;18.90;99.90
62998;DHT22;55949;52.590;7.330;2022-08-19T01:05:14;18.70;99.90
62998;DHT22;55949;52.590;7.330;2022-08-19T01:06:16;18.70;99.90
62998;DHT22;55949;52.590;7.330;2022-08-19T01:07:17;18.50;99.90
62998;DHT22;55949;52.590;7.330;2022-08-19T01:08:19;18.40;99.90
62998;DHT22;55949;52.590;7.330;2022-08-19T01:09:20;18.30;99.90
62998;DHT22;55949;52.590;7.330;2022-08-19T01:10:24;18.20;99.90
62998;DHT22;55949;52.590;7.330;2022-08-19T01:11:30;18.10;99.90
62998;DHT22;55949;52.590;7.330;2022-08-19T01:12:32;18.00;99.90
62998;DHT22;55949;52.590;7.330;2022-08-19T01:13:34;18.00;99.90
62998;DHT22;55949;52.590;7.330;2022-08-19T01:14:39;18.10;99.90
62998;DHT22;55949;52.590;7.330;2022-08-19T01:15:46;18.00;99.90
62998;DHT22;55949;52.590;7.330;2022-08-19T01:16:48;18.00;99.90
62998;DHT22;55949;52.590;7.330;2022-08-19T01:17:50;17.90;99.90
62998;DHT22;55949;52.590;7.330;2022-08-19T01:18:51;18.00;99.90
62998;DHT22;55949;52.590;7.330;2022-08-19T01:19:52;18.00;99.90
62998;DHT22;55949;52.590;7.330;2022-08-19T01:20:54;18.10;99.90
62998;DHT22;55949;52.590;7.330;2022-08-19T01:22:25;18.10;99.90
62998;DHT22;55949;52.590;7.330;2022-08-19T01:23:27;18.00;99.90
62998;DHT22;55949;52.590;7.330;2022-08-19T01:24:43;18.00;99.90
62998;DHT22;55949;52.590;7.330;2022-08-19T01:25:50;17.90;99.90
62998;DHT22;55949;52.590;7.330;2022-08-19T01:26:51;17.80;99.90
62998;DHT22;55949;52.590;7.330;2022-08-19T01:27:52;17.70;99.90
62998;DHT22;55949;52.590;7.330;2022-08-19T01:28:56;17.70;99.90
62998;DHT22;55949;52.590;7.330;2022-08-19T01:29:58;17.70;99.90
62998;DHT22;55949;52.590;7.330;2022-08-19T01:30:59;17.70;99.90
62998;DHT22;55949;52.590;7.330;2022-08-19T01:32:00;17.80;99.90
62998;DHT22;55949;52.590;7.330;2022-08-19T01:33:02;17.90;99.90
62998;DHT22;55949;52.590;7.330;2022-08-19T01:34:07;18.00;99.90
62998;DHT22;55949;52.590;7.330;2022-08-19T01:35:09;18.00;99.90
62998;DHT22;55949;52.590;7.330;2022-08-19T01:36:19;17.90;99.90
62998;DHT22;55949;52.590;7.330;2022-08-19T01:37:22;17.90;99.90
62998;DHT22;55949;52.590;7.330;2022-08-19T01:38:26;17.80;99.90
62998;DHT22;55949;52.590;7.330;2022-08-19T01:39:27;17.80;99.90
62998;DHT22;55949;52.590;7.330;2022-08-19T01:40:32;17.70;99.90
62998;DHT22;55949;52.590;7.330;2022-08-19T01:41:33;17.70;99.90
62998;DHT22;55949;52.590;7.330;2022-08-19T01:42:34;17.80;99.90
62998;DHT22;55949;52.590;7.330;2022-08-19T01:43:35;17.90;99.90
62998;DHT22;55949;52.590;7.330;2022-08-19T01:44:39;17.90;99.90
62998;DHT22;55949;52.590;7.330;2022-08-19T01:45:41;18.00;99.90
62998;DHT22;55949;52.590;7.330;2022-08-19T01:46:42;18.00;99.90
62998;DHT22;55949;52.590;7.330;2022-08-19T01:47:44;18.00;99.90
62998;DHT22;55949;52.590;7.330;2022-08-19T01:48:45;18.10;99.90
62998;DHT22;55949;52.590;7.330;2022-08-19T01:49:46;18.30;99.90
62998;DHT22;55949;52.590;7.330;2022-08-19T01:50:47;18.40;99.90
62998;DHT22;55949;52.590;7.330;2022-08-19T01:51:49;18.30;99.90
62998;DHT22;55949;52.590;7.330;2022-08-19T01:52:49;18.30;99.90
62998;DHT22;55949;52.590;7.330;2022-08-19T01:53:51;18.20;99.90
62998;DHT22;55949;52.590;7.330;2022-08-19T01:54:52;18.10;99.90
62998;DHT22;55949;52.590;7.330;2022-08-19T01:55:53;18.00;99.90
62998;DHT22;55949;52.590;7.330;2022-08-19T01:57:06;18.00;99.90
62998;DHT22;55949;52.590;7.330;2022-08-19T01:58:21;18.00;99.90
62998;DHT22;55949;52.590;7.330;2022-08-19T01:59:24;17.90;99.90
62998;DHT22;55949;52.590;7.330;2022-08-19T02:00:26;18.00;99.90
62998;DHT22;55949;52.590;7.330;2022-08-19T02:01:28;17.90;99.90
62998;DHT22;55949;52.590;7.330;2022-08-19T02:02:32;17.80;99.90
62998;DHT22;55949;52.590;7.330;2022-08-19T02:03:33;17.70;99.90
62998;DHT22;55949;52.590;7.330;2022-08-19T02:04:38;17.70;99.90
62998;DHT22;55949;52.590;7.330;2022-08-19T02:05:40;17.60;99.90
62998;DHT22;55949;52.590;7.330;2022-08-19T02:06:40;17.50;99.90
62998;DHT22;55949;52.590;7.330;2022-08-19T02:07:41;17.40;99.90
62998;DHT22;55949;52.590;7.330;2022-08-19T02:08:42;17.50;99.90
62998;DHT22;55949;52.590;7.330;2022-08-19T02:09:46;17.40;99.90
62998;DHT22;55949;52.590;7.330;2022-08-19T02:10:48;17.40;99.90
62998;DHT22;55949;52.590;7.330;2022-08-19T02:11:50;17.30;99.90
62998;DHT22;55949;52.590;7.330;2022-08-19T02:12:51;17.30;99.90
62998;DHT22;55949;52.590;7.330;2022-08-19T02:13:52;17.50;99.90
62998;DHT22;55949;52.590;7.330;2022-08-19T02:14:53;17.50;99.90
62998;DHT22;55949;52.590;7.330;2022-08-19T02:15:54;17.70;99.90
62998;DHT22;55949;52.590;7.330;2022-08-19T02:16:54;17.80;99.90
62998;DHT22;55949;52.590;7.330;2022-08-19T02:17:55;17.80;99.90
62998;DHT22;55949;52.590;7.330;2022-08-19T02:18:56;17.70;99.90
62998;DHT22;55949;52.590;7.330;2022-08-19T02:19:57;17.70;99.90
62998;DHT22;55949;52.590;7.330;2022-08-19T02:20:57;17.70;99.90
62998;DHT22;55949;52.590;7.330;2022-08-19T02:21:59;17.70;99.90
62998;DHT22;55949;52.590;7.330;2022-08-19T02:23:00;17.50;99.90
62998;DHT22;55949;52.590;7.330;2022-08-19T02:24:01;17.50;99.90
62998;DHT22;55949;52.590;7.330;2022-08-19T02:25:03;17.40;99.90
62998;DHT22;55949;52.590;7.330;2022-08-19T02:26:05;17.40;99.90
62998;DHT22;55949;52.590;7.330;2022-08-19T02:27:07;17.50;99.90
62998;DHT22;55949;52.590;7.330;2022-08-19T02:28:07;17.40;99.90
62998;DHT22;55949;52.590;7.330;2022-08-19T02:29:08;17.30;99.90
62998;DHT22;55949;52.590;7.330;2022-08-19T02:30:13;17.20;99.90
62998;DHT22;55949;52.590;7.330;2022-08-19T02:31:17;17.20;99.90
62998;DHT22;55949;52.590;7.330;2022-08-19T02:32:19;17.40;99.90
62998;DHT22;55949;52.590;7.330;2022-08-19T02:33:20;17.30;99.90
62998;DHT22;55949;52.590;7.330;2022-08-19T02:34:20;17.20;99.90
62998;DHT22;55949;52.590;7.330;2022-08-19T02:35:21;17.10;99.90
62998;DHT22;55949;52.590;7.330;2022-08-19T02:36:24;17.30;99.90
62998;DHT22;55949;52.590;7.330;2022-08-19T02:37:25;17.50;99.90
62998;DHT22;55949;52.590;7.330;2022-08-19T02:38:53;17.70;99.90
62998;DHT22;55949;52.590;7.330;2022-08-19T02:39:54;17.70;99.90
62998;DHT22;55949;52.590;7.330;2022-08-19T02:41:01;17.70;99.90
62998;DHT22;55949;52.590;7.330;2022-08-19T02:42:02;17.80;99.90
62998;DHT22;55949;52.590;7.330;2022-08-19T02:43:05;18.00;99.90
62998;DHT22;55949;52.590;7.330;2022-08-19T02:44:07;18.20;99.90
62998;DHT22;55949;52.590;7.330;2022-08-19T02:45:09;18.10;99.90
62998;DHT22;55949;52.590;7.330;2022-08-19T02:46:17;17.80;99.90
62998;DHT22;55949;52.590;7.330;2022-08-19T02:47:18;17.50;99.90
62998;DHT22;55949;52.590;7.330;2022-08-19T02:48:21;17.30;99.90
62998;DHT22;55949;52.590;7.330;2022-08-19T02:49:21;17.10;99.90
62998;DHT22;55949;52.590;7.330;2022-08-19T02:50:22;16.90;99.90
62998;DHT22;55949;52.590;7.330;2022-08-19T02:51:26;17.00;99.90
62998;DHT22;55949;52.590;7.330;2022-08-19T02:52:27;17.30;99.90
62998;DHT22;55949;52.590;7.330;2022-08-19T02:53:29;17.50;99.90
62998;DHT22;55949;52.590;7.330;2022-08-19T02:54:29;17.60;99.90
62998;DHT22;55949;52.590;7.330;2022-08-19T02:55:30;17.60;99.90
62998;DHT22;55949;52.590;7.330;2022-08-19T02:56:33;17.80;99.90
62998;DHT22;55949;52.590;7.330;2022-08-19T02:57:34;17.80;99.90
62998;DHT22;55949;52.590;7.330;2022-08-19T02:58:36;17.70;99.90
62998;DHT22;55949;52.590;7.330;2022-08-19T02:59:36;17.50;99.90
62998;DHT22;55949;52.590;7.330;2022-08-19T03:00:44;17.50;99.90
62998;DHT22;55949;52.590;7.330;2022-08-19T03:01:46;17.60;99.90
62998;DHT22;55949;52.590;7.330;2022-08-19T03:02:47;17.50;99.90
62998;DHT22;55949;52.590;7.330;2022-08-19T03:03:49;17.40;99.90
62998;DHT22;55949;52.590;7.330;2022-08-19T03:04:50;17.30;99.90
62998;DHT22;55949;52.590;7.330;2022-08-19T03:05:51;17.20;99.90
62998;DHT22;55949;52.590;7.330;2022-08-19T03:06:52;17.10;99.90
62998;DHT22;55949;52.590;7.330;2022-08-19T03:07:53;17.00;99.90
62998;DHT22;55949;52.590;7.330;2022-08-19T03:08:54;17.20;99.90
62998;DHT22;55949;52.590;7.330;2022-08-19T03:09:55;17.40;99.90
62998;DHT22;55949;52.590;7.330;2022-08-19T03:10:56;17.50;99.90
62998;DHT22;55949;52.590;7.330;2022-08-19T03:11:57;17.60;99.90
62998;DHT22;55949;52.590;7.330;2022-08-19T03:12:57;17.50;99.90
62998;DHT22;55949;52.590;7.330;2022-08-19T03:13:59;17.50;99.90
62998;DHT22;55949;52.590;7.330;2022-08-19T03:15:00;17.40;99.90
62998;DHT22;55949;52.590;7.330;2022-08-19T03:16:04;17.30;99.90
62998;DHT22;55949;52.590;7.330;2022-08-19T03:17:06;17.20;99.90
62998;DHT22;55949;52.590;7.330;2022-08-19T03:18:08;17.20;99.90
62998;DHT22;55949;52.590;7.330;2022-08-19T03:19:09;17.10;99.90
62998;DHT22;55949;52.590;7.330;2022-08-19T03:20:10;17.00;99.90
62998;DHT22;55949;52.590;7.330;2022-08-19T03:21:18;17.00;99.90
62998;DHT22;55949;52.590;7.330;2022-08-19T03:22:19;16.90;99.90
62998;DHT22;55949;52.590;7.330;2022-08-19T03:23:20;16.90;99.90
62998;DHT22;55949;52.590;7.330;2022-08-19T03:24:21;16.90;99.90
62998;DHT22;55949;52.590;7.330;2022-08-19T03:25:22;16.90;99.90
62998;DHT22;55949;52.590;7.330;2022-08-19T03:26:23;16.80;99.90
62998;DHT22;55949;52.590;7.330;2022-08-19T03:27:24;16.80;99.90
62998;DHT22;55949;52.590;7.330;2022-08-19T03:28:24;16.80;99.90
62998;DHT22;55949;52.590;7.330;2022-08-19T03:29:29;16.70;99.90
62998;DHT22;55949;52.590;7.330;2022-08-19T03:30:31;16.50;99.90
62998;DHT22;55949;52.590;7.330;2022-08-19T03:31:32;16.50;99.90
62998;DHT22;55949;52.590;7.330;2022-08-19T03:32:33;16.50;99.90
62998;DHT22;55949;52.590;7.330;2022-08-19T03:33:34;16.40;99.90
62998;DHT22;55949;52.590;7.330;2022-08-19T03:34:37;16.40;99.90
62998;DHT22;55949;52.590;7.330;2022-08-19T03:35:38;16.30;99.90
62998;DHT22;55949;52.590;7.330;2022-08-19T03:36:39;16.30;99.90
62998;DHT22;55949;52.590;7.330;2022-08-19T03:37:40;16.30;99.90
62998;DHT22;55949;52.590;7.330;2022-08-19T03:38:47;16.30;99.90
62998;DHT22;55949;52.590;7.330;2022-08-19T03:39:48;16.60;99.90
62998;DHT22;55949;52.590;7.330;2022-08-19T03:40:49;16.80;99.90
62998;DHT22;55949;52.590;7.330;2022-08-19T03:41:52;16.80;99.90
62998;DHT22;55949;52.590;7.330;2022-08-19T03:42:53;16.70;99.90
62998;DHT22;55949;52.590;7.330;2022-08-19T03:43:54;16.80;99.90
62998;DHT22;55949;52.590;7.330;2022-08-19T03:44:55;17.00;99.90
62998;DHT22;55949;52.590;7.330;2022-08-19T03:46:10;17.20;99.90
62998;DHT22;55949;52.590;7.330;2022-08-19T03:47:11;17.40;99.90
62998;DHT22;55949;52.590;7.330;2022-08-19T03:48:16;17.60;99.90
62998;DHT22;55949;52.590;7.330;2022-08-19T03:49:18;17.60;99.90
62998;DHT22;55949;52.590;7.330;2022-08-19T03:50:19;17.50;99.90
62998;DHT22;55949;52.590;7.330;2022-08-19T03:51:22;17.40;99.90
62998;DHT22;55949;52.590;7.330;2022-08-19T03:52:26;17.30;99.90
62998;DHT22;55949;52.590;7.330;2022-08-19T03:53:28;17.20;99.90
62998;DHT22;55949;52.590;7.330;2022-08-19T03:54:29;17.30;99.90
62998;DHT22;55949;52.590;7.330;2022-08-19T03:55:30;17.50;99.90
62998;DHT22;55949;52.590;7.330;2022-08-19T03:56:32;17.50;99.90
62998;DHT22;55949;52.590;7.330;2022-08-19T03:57:33;17.60;99.90
62998;DHT22;55949;52.590;7.330;2022-08-19T03:58:35;17.60;99.90
62998;DHT22;55949;52.590;7.330;2022-08-19T03:59:38;17.80;99.90
62998;DHT22;55949;52.590;7.330;2022-08-19T04:00:42;17.80;99.90
62998;DHT22;55949;52.590;7.330;2022-08-19T04:01:43;17.70;99.90
62998;DHT22;55949;52.590;7.330;2022-08-19T04:02:44;17.70;99.90
62998;DHT22;55949;52.590;7.330;2022-08-19T04:03:44;17.50;99.90
62998;DHT22;55949;52.590;7.330;2022-08-19T04:04:46;17.30;99.90
62998;DHT22;55949;52.590;7.330;2022-08-19T04:05:47;17.30;99.90
62998;DHT22;55949;52.590;7.330;2022-08-19T04:06:48;17.30;99.90
62998;DHT22;55949;52.590;7.330;2022-08-19T04:07:49;17.50;99.90
62998;DHT22;55949;52.590;7.330;2022-08-19T04:08:52;17.70;99.90
62998;DHT22;55949;52.590;7.330;2022-08-19T04:09:54;17.80;99.90
62998;DHT22;55949;52.590;7.330;2022-08-19T04:10:55;17.70;99.90
62998;DHT22;55949;52.590;7.330;2022-08-19T04:11:57;17.70;99.90
62998;DHT22;55949;52.590;7.330;2022-08-19T04:12:57;17.50;99.90
62998;DHT22;55949;52.590;7.330;2022-08-19T04:13:59;17.30;99.90
62998;DHT22;55949;52.590;7.330;2022-08-19T04:15:00;17.10;99.90
62998;DHT22;55949;52.590;7.330;2022-08-19T04:16:01;17.00;99.90
62998;DHT22;55949;52.590;7.330;2022-08-19T04:17:03;16.90;99.90
62998;DHT22;55949;52.590;7.330;2022-08-19T04:18:05;16.80;99.90
62998;DHT22;55949;52.590;7.330;2022-08-19T04:19:08;17.00;99.90
62998;DHT22;55949;52.590;7.330;2022-08-19T04:20:09;17.00;99.90
62998;DHT22;55949;52.590;7.330;2022-08-19T04:21:19;17.00;99.90
62998;DHT22;55949;52.590;7.330;2022-08-19T04:22:20;16.90;99.90
62998;DHT22;55949;52.590;7.330;2022-08-19T04:23:21;16.80;99.90
62998;DHT22;55949;52.590;7.330;2022-08-19T04:24:22;16.70;99.90
62998;DHT22;55949;52.590;7.330;2022-08-19T04:25:23;16.60;99.90
62998;DHT22;55949;52.590;7.330;2022-08-19T04:26:27;16.40;99.90
62998;DHT22;55949;52.590;7.330;2022-08-19T04:27:28;16.40;99.90
62998;DHT22;55949;52.590;7.330;2022-08-19T04:28:29;16.30;99.90
62998;DHT22;55949;52.590;7.330;2022-08-19T04:29:30;16.40;99.90
62998;DHT22;55949;52.590;7.330;2022-08-19T04:30:36;16.50;99.90
62998;DHT22;55949;52.590;7.330;2022-08-19T04:31:37;16.60;99.90
62998;DHT22;55949;52.590;7.330;2022-08-19T04:32:38;16.60;99.90
62998;DHT22;55949;52.590;7.330;2022-08-19T04:33:39;16.70;99.90
62998;DHT22;55949;52.590;7.330;2022-08-19T04:34:39;16.70;99.90
62998;DHT22;55949;52.590;7.330;2022-08-19T04:35:42;16.70;99.90
62998;DHT22;55949;52.590;7.330;2022-08-19T04:36:44;16.80;99.90
62998;DHT22;55949;52.590;7.330;2022-08-19T04:37:45;16.90;99.90
62998;DHT22;55949;52.590;7.330;2022-08-19T04:38:47;16.80;99.90
62998;DHT22;55949;52.590;7.330;2022-08-19T04:39:48;16.90;99.90
62998;DHT22;55949;52.590;7.330;2022-08-19T04:41:07;16.80;99.90
62998;DHT22;55949;52.590;7.330;2022-08-19T04:42:26;16.70;99.90
62998;DHT22;55949;52.590;7.330;2022-08-19T04:43:39;16.70;99.90
62998;DHT22;55949;52.590;7.330;2022-08-19T04:44:39;16.70;99.90
62998;DHT22;55949;52.590;7.330;2022-08-19T04:45:47;16.60;99.90
62998;DHT22;55949;52.590;7.330;2022-08-19T04:46:49;16.60;99.90
62998;DHT22;55949;52.590;7.330;2022-08-19T04:47:54;16.60;99.90
62998;DHT22;55949;52.590;7.330;2022-08-19T04:49:02;16.60;99.90
62998;DHT22;55949;52.590;7.330;2022-08-19T04:50:03;16.50;99.90
62998;DHT22;55949;52.590;7.330;2022-08-19T04:51:10;16.50;99.90
62998;DHT22;55949;52.590;7.330;2022-08-19T04:52:13;16.50;99.90
62998;DHT22;55949;52.590;7.330;2022-08-19T04:53:14;16.50;99.90
62998;DHT22;55949;52.590;7.330;2022-08-19T04:54:18;16.50;99.90
62998;DHT22;55949;52.590;7.330;2022-08-19T04:55:23;16.70;99.90
62998;DHT22;55949;52.590;7.330;2022-08-19T04:56:26;16.80;99.90
62998;DHT22;55949;52.590;7.330;2022-08-19T04:57:27;16.90;99.90
62998;DHT22;55949;52.590;7.330;2022-08-19T04:58:28;16.90;99.90
62998;DHT22;55949;52.590;7.330;2022-08-19T04:59:29;16.90;99.90
62998;DHT22;55949;52.590;7.330;2022-08-19T05:00:30;16.90;99.90
62998;DHT22;55949;52.590;7.330;2022-08-19T05:01:32;17.00;99.90
62998;DHT22;55949;52.590;7.330;2022-08-19T05:02:33;17.20;99.90
62998;DHT22;55949;52.590;7.330;2022-08-19T05:03:34;17.20;99.90
62998;DHT22;55949;52.590;7.330;2022-08-19T05:04:35;17.20;99.90
62998;DHT22;55949;52.590;7.330;2022-08-19T05:05:40;17.20;99.90
62998;DHT22;55949;52.590;7.330;2022-08-19T05:06:41;17.50;99.90
62998;DHT22;55949;52.590;7.330;2022-08-19T05:07:43;17.80;99.90
62998;DHT22;55949;52.590;7.330;2022-08-19T05:08:44;17.90;99.90
62998;DHT22;55949;52.590;7.330;2022-08-19T05:09:45;17.80;99.90
62998;DHT22;55949;52.590;7.330;2022-08-19T05:10:50;17.70;99.90
62998;DHT22;55949;52.590;7.330;2022-08-19T05:11:51;17.60;99.90
62998;DHT22;55949;52.590;7.330;2022-08-19T05:12:53;17.60;99.90
62998;DHT22;55949;52.590;7.330;2022-08-19T05:13:54;17.50;99.90
62998;DHT22;55949;52.590;7.330;2022-08-19T05:14:56;17.40;99.90
62998;DHT22;55949;52.590;7.330;2022-08-19T05:15:58;17.30;99.90
62998;DHT22;55949;52.590;7.330;2022-08-19T05:17:00;17.40;99.90
62998;DHT22;55949;52.590;7.330;2022-08-19T05:18:01;17.40;99.90
62998;DHT22;55949;52.590;7.330;2022-08-19T05:19:20;17.30;99.90
62998;DHT22;55949;52.590;7.330;2022-08-19T05:20:39;17.30;99.90
62998;DHT22;55949;52.590;7.330;2022-08-19T05:22:03;17.20;99.90
62998;DHT22;55949;52.590;7.330;2022-08-19T05:23:23;17.30;99.90
62998;DHT22;55949;52.590;7.330;2022-08-19T05:24:24;17.30;99.90
62998;DHT22;55949;52.590;7.330;2022-08-19T05:25:25;17.30;99.90
62998;DHT22;55949;52.590;7.330;2022-08-19T05:26:26;17.30;99.90
62998;DHT22;55949;52.590;7.330;2022-08-19T05:27:27;17.30;99.90
62998;DHT22;55949;52.590;7.330;2022-08-19T05:28:28;17.40;99.90
62998;DHT22;55949;52.590;7.330;2022-08-19T05:29:30;17.50;99.90
62998;DHT22;55949;52.590;7.330;2022-08-19T05:30:31;17.50;99.90
62998;DHT22;55949;52.590;7.330;2022-08-19T05:31:33;17.60;99.90
62998;DHT22;55949;52.590;7.330;2022-08-19T05:32:34;17.60;99.90
62998;DHT22;55949;52.590;7.330;2022-08-19T05:33:35;17.70;99.90
62998;DHT22;55949;52.590;7.330;2022-08-19T05:34:36;17.80;99.90
62998;DHT22;55949;52.590;7.330;2022-08-19T05:35:38;17.90;99.90
62998;DHT22;55949;52.590;7.330;2022-08-19T05:36:41;18.10;99.90
62998;DHT22;55949;52.590;7.330;2022-08-19T05:37:43;18.10;99.90
62998;DHT22;55949;52.590;7.330;2022-08-19T05:38:44;18.10;99.90
62998;DHT22;55949;52.590;7.330;2022-08-19T05:39:45;18.00;99.90
62998;DHT22;55949;52.590;7.330;2022-08-19T05:40:45;18.10;99.90
62998;DHT22;55949;52.590;7.330;2022-08-19T05:41:50;18.10;99.90
62998;DHT22;55949;52.590;7.330;2022-08-19T05:42:51;18.10;99.90
62998;DHT22;55949;52.590;7.330;2022-08-19T05:43:53;18.30;99.90
62998;DHT22;55949;52.590;7.330;2022-08-19T05:44:54;18.30;99.90
62998;DHT22;55949;52.590;7.330;2022-08-19T05:45:56;18.40;99.90
62998;DHT22;55949;52.590;7.330;2022-08-19T05:46:58;18.40;99.90
62998;DHT22;55949;52.590;7.330;2022-08-19T05:47:59;18.30;99.90
62998;DHT22;55949;52.590;7.330;2022-08-19T05:49:00;18.40;99.90
62998;DHT22;55949;52.590;7.330;2022-08-19T05:50:01;18.30;99.90
62998;DHT22;55949;52.590;7.330;2022-08-19T05:51:05;18.40;99.90
62998;DHT22;55949;52.590;7.330;2022-08-19T05:52:09;18.40;99.90
62998;DHT22;55949;52.590;7.330;2022-08-19T05:53:11;18.40;99.90
62998;DHT22;55949;52.590;7.330;2022-08-19T05:54:12;18.40;99.90
62998;DHT22;55949;52.590;7.330;2022-08-19T05:55:13;18.40;99.90
62998;DHT22;55949;52.590;7.330;2022-08-19T05:56:15;18.60;99.90
62998;DHT22;55949;52.590;7.330;2022-08-19T05:57:17;18.90;99.90
62998;DHT22;55949;52.590;7.330;2022-08-19T05:58:18;19.00;99.90
62998;DHT22;55949;52.590;7.330;2022-08-19T05:59:20;19.10;99.90
62998;DHT22;55949;52.590;7.330;2022-08-19T06:00:21;19.10;99.90
62998;DHT22;55949;52.590;7.330;2022-08-19T06:01:24;19.30;99.90
62998;DHT22;55949;52.590;7.330;2022-08-19T06:02:29;19.40;99.90
62998;DHT22;55949;52.590;7.330;2022-08-19T06:03:31;19.40;99.90
62998;DHT22;55949;52.590;7.330;2022-08-19T06:04:33;19.50;99.90
62998;DHT22;55949;52.590;7.330;2022-08-19T06:05:34;19.70;99.90
62998;DHT22;55949;52.590;7.330;2022-08-19T06:06:35;19.90;99.90
62998;DHT22;55949;52.590;7.330;2022-08-19T06:07:37;20.00;99.90
62998;DHT22;55949;52.590;7.330;2022-08-19T06:08:39;20.00;99.90
62998;DHT22;55949;52.590;7.330;2022-08-19T06:09:41;20.10;99.90
62998;DHT22;55949;52.590;7.330;2022-08-19T06:10:41;20.30;99.90
62998;DHT22;55949;52.590;7.330;2022-08-19T06:11:46;20.10;99.90
62998;DHT22;55949;52.590;7.330;2022-08-19T06:12:48;19.90;99.90
62998;DHT22;55949;52.590;7.330;2022-08-19T06:13:51;19.90;99.90
62998;DHT22;55949;52.590;7.330;2022-08-19T06:14:52;20.00;99.90
62998;DHT22;55949;52.590;7.330;2022-08-19T06:15:55;20.10;99.90
62998;DHT22;55949;52.590;7.330;2022-08-19T06:16:56;20.00;99.90
62998;DHT22;55949;52.590;7.330;2022-08-19T06:17:58;20.00;99.90
62998;DHT22;55949;52.590;7.330;2022-08-19T06:19:00;20.10;99.90
62998;DHT22;55949;52.590;7.330;2022-08-19T06:20:07;20.00;99.90
62998;DHT22;55949;52.590;7.330;2022-08-19T06:21:09;20.00;99.90
62998;DHT22;55949;52.590;7.330;2022-08-19T06:22:09;20.10;99.90
62998;DHT22;55949;52.590;7.330;2022-08-19T06:23:12;20.20;99.90
62998;DHT22;55949;52.590;7.330;2022-08-19T06:24:15;20.30;99.90
62998;DHT22;55949;52.590;7.330;2022-08-19T06:25:16;20.40;99.90
62998;DHT22;55949;52.590;7.330;2022-08-19T06:26:19;20.60;99.90
62998;DHT22;55949;52.590;7.330;2022-08-19T06:27:20;20.70;99.90
62998;DHT22;55949;52.590;7.330;2022-08-19T06:28:21;20.90;99.90
62998;DHT22;55949;52.590;7.330;2022-08-19T06:29:25;21.00;99.90
62998;DHT22;55949;52.590;7.330;2022-08-19T06:30:27;21.10;99.90
62998;DHT22;55949;52.590;7.330;2022-08-19T06:31:28;21.10;99.90
62998;DHT22;55949;52.590;7.330;2022-08-19T06:32:30;21.20;99.90
62998;DHT22;55949;52.590;7.330;2022-08-19T06:33:30;21.20;99.90
62998;DHT22;55949;52.590;7.330;2022-08-19T06:34:33;21.20;99.90
62998;DHT22;55949;52.590;7.330;2022-08-19T06:35:39;21.20;99.90
62998;DHT22;55949;52.590;7.330;2022-08-19T06:36:42;21.20;99.90